createdAt,value
2022-11-12T00:01:09.596Z,15.73
2022-11-12T00:06:12.555Z,13.13
2022-11-12T00:11:16.521Z,9.77
2022-11-12T00:16:20.036Z,14.40
2022-11-12T00:21:22.899Z,13.40
2022-11-12T00:26:25.964Z,11.47
2022-11-12T00:31:29.100Z,12.63
2022-11-12T00:36:32.027Z,15.20
2022-11-12T00:41:34.984Z,11.90
2022-11-12T00:46:37.702Z,10.87
2022-11-12T00:51:41.020Z,10.03
2022-11-12T00:56:47.429Z,13.33
2022-11-12T01:01:51.277Z,10.17
2022-11-12T01:06:54.302Z,17.90
2022-11-12T01:11:57.367Z,11.53
2022-11-12T01:17:00.234Z,13.00
2022-11-12T01:22:03.216Z,13.73
2022-11-12T01:27:06.210Z,10.03
2022-11-12T01:32:09.152Z,10.80
2022-11-12T01:37:12.076Z,11.07
2022-11-12T01:42:14.898Z,12.37
2022-11-12T01:47:29.908Z,7.57
2022-11-12T01:52:43.235Z,12.23
2022-11-12T01:58:05.570Z,11.13
2022-11-12T02:03:16.010Z,11.75
2022-11-12T02:08:19.418Z,11.00
2022-11-12T02:13:41.149Z,14.10
2022-11-12T02:18:44.080Z,12.23
2022-11-12T02:23:46.907Z,11.63
2022-11-12T02:28:49.768Z,13.73
2022-11-12T02:33:52.696Z,12.97
2022-11-12T02:38:55.769Z,13.73
2022-11-12T02:43:58.661Z,10.83
2022-11-12T02:49:01.452Z,12.17
2022-11-12T02:54:04.384Z,13.13
2022-11-12T02:59:07.202Z,13.30
2022-11-12T03:04:10.156Z,9.30
2022-11-12T03:09:13.424Z,15.07
2022-11-12T03:14:16.515Z,12.60
2022-11-12T03:19:19.466Z,9.23
2022-11-12T03:24:22.309Z,14.77
2022-11-12T03:29:26.350Z,9.70
2022-11-12T03:34:29.223Z,12.80
2022-11-12T03:39:32.116Z,13.93
2022-11-12T03:44:35.123Z,12.00
2022-11-12T03:49:40.830Z,12.30
2022-11-12T03:54:43.737Z,11.70
2022-11-12T03:59:47.031Z,10.10
2022-11-12T04:05:08.198Z,11.07
2022-11-12T04:10:11.363Z,9.48
2022-11-12T04:15:14.332Z,10.13
2022-11-12T04:20:37.207Z,10.47
2022-11-12T04:25:59.408Z,10.87
2022-11-12T04:31:02.676Z,11.03
2022-11-12T04:36:05.667Z,10.67
2022-11-12T04:41:27.507Z,11.87
2022-11-12T04:46:30.475Z,11.70
2022-11-12T04:51:51.723Z,11.10
2022-11-12T04:56:54.613Z,10.40
2022-11-12T05:01:57.434Z,11.27
2022-11-12T05:07:01.999Z,10.50
2022-11-12T05:12:05.182Z,11.03
2022-11-12T05:17:08.181Z,11.33
2022-11-12T05:22:33.299Z,8.70
2022-11-12T05:27:35.690Z,9.80
2022-11-12T05:32:38.595Z,11.30
2022-11-12T05:37:41.438Z,9.20
2022-11-12T05:42:45.464Z,13.10
2022-11-12T05:47:48.544Z,34.00
2022-11-12T05:52:51.343Z,23.50
2022-11-12T05:57:54.294Z,26.43
2022-11-12T06:02:58.943Z,25.53
2022-11-12T06:08:02.608Z,15.13
2022-11-12T06:13:06.050Z,20.43
2022-11-12T06:18:09.983Z,18.63
2022-11-12T06:23:12.840Z,12.67
2022-11-12T06:28:15.740Z,17.77
2022-11-12T06:33:18.764Z,15.13
2022-11-12T06:38:21.944Z,11.27
2022-11-12T06:43:26.174Z,11.97
2022-11-12T06:48:30.709Z,13.83
2022-11-12T06:53:33.664Z,8.83
2022-11-12T06:58:36.782Z,10.70
2022-11-12T07:03:41.905Z,9.77
2022-11-12T07:08:49.778Z,11.20
2022-11-12T07:13:52.692Z,9.07
2022-11-12T07:18:55.572Z,12.17
2022-11-12T07:23:58.507Z,12.03
2022-11-12T07:29:01.466Z,11.73
2022-11-12T07:34:04.463Z,17.37
2022-11-12T07:39:07.436Z,21.40
2022-11-12T07:44:10.671Z,20.97
2022-11-12T07:49:13.668Z,20.37
2022-11-12T07:54:16.599Z,18.27
2022-11-12T07:59:19.533Z,16.93
2022-11-12T08:04:23.149Z,13.47
2022-11-12T08:09:26.044Z,12.73
2022-11-12T08:14:29.370Z,14.03
2022-11-12T08:19:32.304Z,14.80
2022-11-12T08:24:35.152Z,10.53
2022-11-12T08:29:38.023Z,11.10
2022-11-12T08:34:41.535Z,11.10
2022-11-12T08:39:44.461Z,9.40
2022-11-12T08:44:47.464Z,9.07
2022-11-12T08:49:50.470Z,9.93
2022-11-12T08:54:53.382Z,9.48
2022-11-12T08:59:56.255Z,8.73
2022-11-12T09:04:59.133Z,7.55
2022-11-12T09:10:02.278Z,9.23
2022-11-12T09:15:36.323Z,8.77
2022-11-12T09:20:31.372Z,8.98
2022-11-12T09:25:35.359Z,12.20
2022-11-12T09:30:43.791Z,8.75
2022-11-12T09:35:48.035Z,9.35
2022-11-12T09:40:59.885Z,8.43
2022-11-12T09:46:27.313Z,9.48
2022-11-12T09:51:46.698Z,8.80
2022-11-12T09:56:50.983Z,8.37
2022-11-12T10:02:05.566Z,9.97
2022-11-12T10:07:43.740Z,10.47
2022-11-12T10:13:17.401Z,9.20
2022-11-12T10:18:36.136Z,9.50
2022-11-12T10:23:54.176Z,8.40
2022-11-12T10:29:19.185Z,9.40
2022-11-12T10:34:24.484Z,9.30
2022-11-12T10:39:44.246Z,8.47
2022-11-12T10:44:48.705Z,8.93
2022-11-12T10:50:16.582Z,9.13
2022-11-12T10:55:56.521Z,8.48
2022-11-12T11:01:16.458Z,9.07
2022-11-12T11:06:26.562Z,9.07
2022-11-12T11:11:31.397Z,7.43
2022-11-12T11:16:52.549Z,9.43
2022-11-12T11:22:14.916Z,8.63
2022-11-12T11:27:42.454Z,9.80
2022-11-12T11:32:54.154Z,9.00
2022-11-12T11:38:35.901Z,9.40
2022-11-12T11:44:13.794Z,8.27
2022-11-12T11:49:44.667Z,8.20
2022-11-12T11:55:12.329Z,7.95
2022-11-12T12:00:23.056Z,8.57
2022-11-12T12:11:08.193Z,7.95
2022-11-12T12:16:39.079Z,8.85
2022-11-12T12:21:46.890Z,9.30
2022-11-12T12:27:04.591Z,8.55
2022-11-12T12:32:28.867Z,9.10
2022-11-12T12:37:42.600Z,10.13
2022-11-12T12:43:00.227Z,8.60
2022-11-12T12:48:11.471Z,8.50
2022-11-12T12:53:22.676Z,9.15
2022-11-12T12:58:47.419Z,10.32
2022-11-12T13:03:52.942Z,8.50
2022-11-12T13:09:25.763Z,8.87
2022-11-12T13:15:19.287Z,7.70
2022-11-12T13:20:34.485Z,9.50
2022-11-12T13:25:38.707Z,8.27
2022-11-12T13:30:41.469Z,10.57
2022-11-12T13:35:44.677Z,11.38
2022-11-12T13:41:10.904Z,10.50
2022-11-12T13:46:39.993Z,9.25
2022-11-12T13:51:53.253Z,9.50
2022-11-12T13:56:56.932Z,8.90
2022-11-12T14:02:15.159Z,9.97
2022-11-12T14:07:27.311Z,10.20
2022-11-12T14:12:53.609Z,9.77
2022-11-12T14:18:12.644Z,9.67
2022-11-12T14:23:24.504Z,11.27
2022-11-12T14:28:33.088Z,9.53
2022-11-12T14:33:35.984Z,11.33
2022-11-12T14:38:48.284Z,8.00
2022-11-12T14:44:11.469Z,9.83
2022-11-12T14:49:47.934Z,9.60
2022-11-12T14:55:00.484Z,11.77
2022-11-12T15:00:44.577Z,13.67
2022-11-12T15:06:04.117Z,12.10
2022-11-12T15:11:35.433Z,14.13
2022-11-12T15:16:43.700Z,14.55
2022-11-12T15:22:02.368Z,16.23
2022-11-12T15:27:35.888Z,17.87
2022-11-12T15:32:38.735Z,21.33
2022-11-12T15:37:43.295Z,19.53
2022-11-12T15:42:48.203Z,17.40
2022-11-12T15:47:50.828Z,21.83
2022-11-12T15:52:54.754Z,19.73
2022-11-12T15:57:58.214Z,22.03
2022-11-12T16:03:20.458Z,18.67
2022-11-12T16:08:23.500Z,17.90
2022-11-12T16:13:36.123Z,19.77
2022-11-12T16:18:39.069Z,17.90
2022-11-12T16:23:41.996Z,23.07
2022-11-12T16:28:45.035Z,22.67
2022-11-12T16:33:48.519Z,20.00
2022-11-12T16:38:51.454Z,24.80
2022-11-12T16:43:54.658Z,24.10
2022-11-12T16:48:57.635Z,19.10
2022-11-12T16:54:00.497Z,20.10
2022-11-12T16:59:04.559Z,18.00
2022-11-12T17:04:07.831Z,16.33
2022-11-12T17:09:12.398Z,21.97
2022-11-12T17:14:16.490Z,23.03
2022-11-12T17:19:19.446Z,25.57
2022-11-12T17:24:22.318Z,32.37
2022-11-12T17:29:25.218Z,32.50
2022-11-12T17:34:28.151Z,43.40
2022-11-12T17:39:31.088Z,51.43
2022-11-12T17:44:34.014Z,48.27
2022-11-12T17:49:37.859Z,28.07
2022-11-12T17:54:40.807Z,24.67
2022-11-12T17:59:43.744Z,23.20
2022-11-12T18:04:46.665Z,21.70
2022-11-12T18:09:49.582Z,21.23
2022-11-12T18:14:54.136Z,23.83
2022-11-12T18:19:57.101Z,23.70
2022-11-12T18:25:01.414Z,20.03
2022-11-12T18:30:05.239Z,20.73
2022-11-12T18:35:08.897Z,22.17
2022-11-12T18:40:12.087Z,16.97
2022-11-12T18:45:15.083Z,17.90
2022-11-12T18:50:18.160Z,19.13
2022-11-12T18:55:21.082Z,20.57
2022-11-12T19:00:23.898Z,18.97
2022-11-12T19:05:26.822Z,19.57
2022-11-12T19:10:30.097Z,18.50
2022-11-12T19:15:34.253Z,20.30
2022-11-12T19:20:37.168Z,20.73
2022-11-12T19:25:40.020Z,22.80
2022-11-12T19:30:42.962Z,21.20
2022-11-12T19:35:45.765Z,16.60
2022-11-12T19:40:48.636Z,21.97
2022-11-12T19:45:51.487Z,22.53
2022-11-12T19:50:54.420Z,21.83
2022-11-12T19:56:04.242Z,19.90
2022-11-12T20:01:10.826Z,19.80
2022-11-12T20:06:20.625Z,17.93
2022-11-12T20:11:23.594Z,20.17
2022-11-12T20:16:28.145Z,15.60
2022-11-12T20:21:31.084Z,17.83
2022-11-12T20:26:33.941Z,22.37
2022-11-12T20:31:37.950Z,22.50
2022-11-12T20:36:40.710Z,20.53
2022-11-12T20:41:43.648Z,15.53
2022-11-12T20:46:46.525Z,15.50
2022-11-12T20:51:49.385Z,25.73
2022-11-12T20:56:52.307Z,23.20
2022-11-12T21:01:58.837Z,22.20
2022-11-12T21:07:05.262Z,23.37
2022-11-12T21:12:08.658Z,14.50
2022-11-12T21:17:11.585Z,23.03
2022-11-12T21:22:15.539Z,21.13
2022-11-12T21:27:18.514Z,20.77
2022-11-12T21:32:21.170Z,18.80
2022-11-12T21:37:23.965Z,20.20
2022-11-12T21:42:26.643Z,18.93
2022-11-12T21:47:29.460Z,19.90
2022-11-12T21:52:32.359Z,12.17
2022-11-12T21:57:35.332Z,11.67
2022-11-12T22:02:38.363Z,21.40
2022-11-12T22:07:41.355Z,19.20
2022-11-12T22:12:58.863Z,17.00
2022-11-12T22:18:07.766Z,13.27
2022-11-12T22:23:10.660Z,16.00
2022-11-12T22:28:13.522Z,16.57
2022-11-12T22:33:16.460Z,19.10
2022-11-12T22:38:19.489Z,17.77
2022-11-12T22:43:22.296Z,11.50
2022-11-12T22:48:25.374Z,10.70
2022-11-12T22:53:29.760Z,10.90
2022-11-12T22:58:45.196Z,13.83
2022-11-12T23:03:50.140Z,18.03
2022-11-12T23:08:56.033Z,13.17
2022-11-12T23:13:58.914Z,19.03
2022-11-12T23:19:01.993Z,19.60
2022-11-12T23:24:05.182Z,17.63
2022-11-12T23:29:12.938Z,16.17
2022-11-12T23:34:16.214Z,18.10
2022-11-12T23:39:19.038Z,11.27
2022-11-12T23:44:21.860Z,17.03
2022-11-12T23:49:24.732Z,19.70
2022-11-12T23:54:27.635Z,17.17
2022-11-12T23:59:30.503Z,14.33
